sensor_id;sensor_type;location;lat;lon;timestamp;P1;durP1;ratioP1;P2;durP2;ratioP2
65658;SDS011;60181;53.258;6.932;2022-08-19T00:02:05;5.20;;;3.20;;
65658;SDS011;60181;53.258;6.932;2022-08-19T00:06:33;5.80;;;3.10;;
65658;SDS011;60181;53.258;6.932;2022-08-19T00:11:01;5.80;;;3.10;;
65658;SDS011;60181;53.258;6.932;2022-08-19T00:15:29;5.80;;;3.10;;
65658;SDS011;60181;53.258;6.932;2022-08-19T00:19:57;7.00;;;3.70;;
65658;SDS011;60181;53.258;6.932;2022-08-19T00:24:25;7.00;;;3.70;;
65658;SDS011;60181;53.258;6.932;2022-08-19T00:28:53;6.50;;;3.30;;
65658;SDS011;60181;53.258;6.932;2022-08-19T00:33:21;6.50;;;3.30;;
65658;SDS011;60181;53.258;6.932;2022-08-19T00:37:49;5.60;;;3.20;;
65658;SDS011;60181;53.258;6.932;2022-08-19T00:42:19;5.60;;;3.20;;
65658;SDS011;60181;53.258;6.932;2022-08-19T00:46:46;7.60;;;3.40;;
65658;SDS011;60181;53.258;6.932;2022-08-19T00:51:13;7.60;;;3.40;;
65658;SDS011;60181;53.258;6.932;2022-08-19T00:55:42;7.60;;;3.40;;
65658;SDS011;60181;53.258;6.932;2022-08-19T01:00:10;6.80;;;3.60;;
65658;SDS011;60181;53.258;6.932;2022-08-19T01:04:37;6.80;;;3.60;;
65658;SDS011;60181;53.258;6.932;2022-08-19T01:09:05;5.20;;;3.10;;
65658;SDS011;60181;53.258;6.932;2022-08-19T01:13:33;5.20;;;3.10;;
65658;SDS011;60181;53.258;6.932;2022-08-19T01:18:08;4.80;;;2.70;;
65658;SDS011;60181;53.258;6.932;2022-08-19T01:22:30;4.80;;;2.70;;
65658;SDS011;60181;53.258;6.932;2022-08-19T01:26:57;5.80;;;2.60;;
65658;SDS011;60181;53.258;6.932;2022-08-19T01:31:26;5.80;;;2.60;;
65658;SDS011;60181;53.258;6.932;2022-08-19T01:35:53;5.80;;;2.60;;
65658;SDS011;60181;53.258;6.932;2022-08-19T01:40:22;7.30;;;2.30;;
65658;SDS011;60181;53.258;6.932;2022-08-19T01:44:49;7.30;;;2.30;;
65658;SDS011;60181;53.258;6.932;2022-08-19T01:49:18;6.70;;;3.20;;
65658;SDS011;60181;53.258;6.932;2022-08-19T01:53:47;6.70;;;3.20;;
65658;SDS011;60181;53.258;6.932;2022-08-19T01:58:17;4.90;;;2.80;;
65658;SDS011;60181;53.258;6.932;2022-08-19T02:02:41;4.90;;;2.80;;
65658;SDS011;60181;53.258;6.932;2022-08-19T02:07:09;7.90;;;2.90;;
65658;SDS011;60181;53.258;6.932;2022-08-19T02:11:37;7.90;;;2.90;;
65658;SDS011;60181;53.258;6.932;2022-08-19T02:16:05;7.90;;;2.90;;
65658;SDS011;60181;53.258;6.932;2022-08-19T02:20:33;7.10;;;3.10;;
65658;SDS011;60181;53.258;6.932;2022-08-19T02:25:01;7.10;;;3.10;;
65658;SDS011;60181;53.258;6.932;2022-08-19T02:29:29;6.50;;;3.10;;
65658;SDS011;60181;53.258;6.932;2022-08-19T02:33:57;6.50;;;3.10;;
65658;SDS011;60181;53.258;6.932;2022-08-19T02:38:25;6.60;;;3.30;;
65658;SDS011;60181;53.258;6.932;2022-08-19T02:42:53;6.60;;;3.30;;
65658;SDS011;60181;53.258;6.932;2022-08-19T02:47:21;5.80;;;3.00;;
65658;SDS011;60181;53.258;6.932;2022-08-19T02:51:49;5.80;;;3.00;;
65658;SDS011;60181;53.258;6.932;2022-08-19T02:56:17;5.80;;;3.00;;
65658;SDS011;60181;53.258;6.932;2022-08-19T03:00:45;7.10;;;3.40;;
65658;SDS011;60181;53.258;6.932;2022-08-19T03:05:13;7.10;;;3.40;;
65658;SDS011;60181;53.258;6.932;2022-08-19T03:09:41;6.20;;;3.60;;
65658;SDS011;60181;53.258;6.932;2022-08-19T03:14:09;6.20;;;3.60;;
65658;SDS011;60181;53.258;6.932;2022-08-19T03:18:37;5.40;;;3.20;;
65658;SDS011;60181;53.258;6.932;2022-08-19T03:23:05;5.40;;;3.20;;
65658;SDS011;60181;53.258;6.932;2022-08-19T03:27:33;5.70;;;3.20;;
65658;SDS011;60181;53.258;6.932;2022-08-19T03:32:03;5.70;;;3.20;;
65658;SDS011;60181;53.258;6.932;2022-08-19T03:36:29;6.90;;;3.80;;
65658;SDS011;60181;53.258;6.932;2022-08-19T03:40:57;6.90;;;3.80;;
65658;SDS011;60181;53.258;6.932;2022-08-19T03:45:25;6.90;;;3.80;;
65658;SDS011;60181;53.258;6.932;2022-08-19T03:49:53;6.00;;;3.60;;
65658;SDS011;60181;53.258;6.932;2022-08-19T03:54:21;6.00;;;3.60;;
65658;SDS011;60181;53.258;6.932;2022-08-19T03:58:49;8.90;;;4.00;;
65658;SDS011;60181;53.258;6.932;2022-08-19T04:03:17;8.90;;;4.00;;
65658;SDS011;60181;53.258;6.932;2022-08-19T04:07:45;11.70;;;5.30;;
65658;SDS011;60181;53.258;6.932;2022-08-19T04:12:13;11.70;;;5.30;;
65658;SDS011;60181;53.258;6.932;2022-08-19T04:16:41;8.00;;;4.30;;
65658;SDS011;60181;53.258;6.932;2022-08-19T04:21:14;8.00;;;4.30;;
65658;SDS011;60181;53.258;6.932;2022-08-19T04:25:38;8.00;;;4.30;;
65658;SDS011;60181;53.258;6.932;2022-08-19T04:30:05;8.60;;;4.40;;
65658;SDS011;60181;53.258;6.932;2022-08-19T04:34:33;8.60;;;4.40;;
65658;SDS011;60181;53.258;6.932;2022-08-19T04:39:02;7.30;;;4.30;;
65658;SDS011;60181;53.258;6.932;2022-08-19T04:43:29;7.30;;;4.30;;
65658;SDS011;60181;53.258;6.932;2022-08-19T04:47:57;4.30;;;3.00;;
65658;SDS011;60181;53.258;6.932;2022-08-19T04:52:25;4.30;;;3.00;;
65658;SDS011;60181;53.258;6.932;2022-08-19T04:56:53;5.50;;;2.60;;
65658;SDS011;60181;53.258;6.932;2022-08-19T05:01:22;5.50;;;2.60;;
65658;SDS011;60181;53.258;6.932;2022-08-19T05:05:49;5.50;;;2.60;;
65658;SDS011;60181;53.258;6.932;2022-08-19T05:10:17;4.10;;;2.40;;
65658;SDS011;60181;53.258;6.932;2022-08-19T05:14:45;4.10;;;2.40;;
65658;SDS011;60181;53.258;6.932;2022-08-19T05:19:13;2.40;;;1.60;;
65658;SDS011;60181;53.258;6.932;2022-08-19T05:23:41;2.40;;;1.60;;
65658;SDS011;60181;53.258;6.932;2022-08-19T05:28:09;2.80;;;1.40;;
65658;SDS011;60181;53.258;6.932;2022-08-19T05:32:37;2.80;;;1.40;;
65658;SDS011;60181;53.258;6.932;2022-08-19T05:37:05;1.80;;;1.30;;
65658;SDS011;60181;53.258;6.932;2022-08-19T05:41:33;1.80;;;1.30;;
65658;SDS011;60181;53.258;6.932;2022-08-19T05:46:01;1.80;;;1.30;;
65658;SDS011;60181;53.258;6.932;2022-08-19T05:50:29;8.10;;;1.70;;
65658;SDS011;60181;53.258;6.932;2022-08-19T05:54:57;8.10;;;1.70;;
65658;SDS011;60181;53.258;6.932;2022-08-19T05:59:24;6.10;;;2.20;;
65658;SDS011;60181;53.258;6.932;2022-08-19T06:03:52;6.10;;;2.20;;
65658;SDS011;60181;53.258;6.932;2022-08-19T06:08:20;6.60;;;1.70;;
65658;SDS011;60181;53.258;6.932;2022-08-19T06:12:48;6.60;;;1.70;;
65658;SDS011;60181;53.258;6.932;2022-08-19T06:17:16;4.10;;;1.40;;
65658;SDS011;60181;53.258;6.932;2022-08-19T06:21:45;4.10;;;1.40;;
65658;SDS011;60181;53.258;6.932;2022-08-19T06:26:13;4.10;;;1.40;;
65658;SDS011;60181;53.258;6.932;2022-08-19T06:30:41;2.30;;;1.20;;
65658;SDS011;60181;53.258;6.932;2022-08-19T06:35:09;2.30;;;1.20;;
65658;SDS011;60181;53.258;6.932;2022-08-19T06:39:38;6.60;;;3.40;;
65658;SDS011;60181;53.258;6.932;2022-08-19T06:44:05;6.60;;;3.40;;
65658;SDS011;60181;53.258;6.932;2022-08-19T06:48:32;8.90;;;4.90;;
65658;SDS011;60181;53.258;6.932;2022-08-19T06:53:00;8.90;;;4.90;;
65658;SDS011;60181;53.258;6.932;2022-08-19T06:57:28;12.00;;;6.50;;
65658;SDS011;60181;53.258;6.932;2022-08-19T07:01:56;12.00;;;6.50;;
65658;SDS011;60181;53.258;6.932;2022-08-19T07:06:24;12.80;;;6.20;;
65658;SDS011;60181;53.258;6.932;2022-08-19T07:10:52;12.80;;;6.20;;
65658;SDS011;60181;53.258;6.932;2022-08-19T07:15:20;12.80;;;6.20;;
65658;SDS011;60181;53.258;6.932;2022-08-19T07:19:48;12.60;;;6.50;;
65658;SDS011;60181;53.258;6.932;2022-08-19T07:24:17;12.60;;;6.50;;
65658;SDS011;60181;53.258;6.932;2022-08-19T07:28:46;12.30;;;6.80;;
65658;SDS011;60181;53.258;6.932;2022-08-19T07:33:12;12.30;;;6.80;;
65658;SDS011;60181;53.258;6.932;2022-08-19T07:37:40;10.90;;;6.80;;
65658;SDS011;60181;53.258;6.932;2022-08-19T07:42:09;10.90;;;6.80;;
65658;SDS011;60181;53.258;6.932;2022-08-19T07:46:38;10.30;;;6.50;;
65658;SDS011;60181;53.258;6.932;2022-08-19T07:51:05;10.30;;;6.50;;
65658;SDS011;60181;53.258;6.932;2022-08-19T07:55:32;10.30;;;6.50;;
65658;SDS011;60181;53.258;6.932;2022-08-19T08:00:01;10.60;;;5.40;;
65658;SDS011;60181;53.258;6.932;2022-08-19T08:04:29;10.60;;;5.40;;
65658;SDS011;60181;53.258;6.932;2022-08-19T08:08:57;8.80;;;5.20;;
65658;SDS011;60181;53.258;6.932;2022-08-19T08:13:24;8.80;;;5.20;;
65658;SDS011;60181;53.258;6.932;2022-08-19T08:17:52;7.80;;;5.00;;
65658;SDS011;60181;53.258;6.932;2022-08-19T08:22:21;7.80;;;5.00;;
65658;SDS011;60181;53.258;6.932;2022-08-19T08:26:48;11.70;;;6.60;;
65658;SDS011;60181;53.258;6.932;2022-08-19T08:31:17;11.70;;;6.60;;
65658;SDS011;60181;53.258;6.932;2022-08-19T08:35:44;11.70;;;6.60;;
65658;SDS011;60181;53.258;6.932;2022-08-19T08:40:18;16.40;;;9.30;;
65658;SDS011;60181;53.258;6.932;2022-08-19T08:44:47;16.40;;;9.30;;
65658;SDS011;60181;53.258;6.932;2022-08-19T08:53:36;18.40;;;10.90;;
65658;SDS011;60181;53.258;6.932;2022-08-19T08:58:06;18.10;;;10.80;;
65658;SDS011;60181;53.258;6.932;2022-08-19T09:02:32;18.10;;;10.80;;
65658;SDS011;60181;53.258;6.932;2022-08-19T09:07:19;21.60;;;10.70;;
65658;SDS011;60181;53.258;6.932;2022-08-19T09:15:58;21.60;;;10.70;;
65658;SDS011;60181;53.258;6.932;2022-08-19T09:20:24;18.00;;;10.80;;
65658;SDS011;60181;53.258;6.932;2022-08-19T09:24:53;18.00;;;10.80;;
65658;SDS011;60181;53.258;6.932;2022-08-19T09:29:20;17.80;;;10.10;;
65658;SDS011;60181;53.258;6.932;2022-08-19T09:33:48;17.80;;;10.10;;
65658;SDS011;60181;53.258;6.932;2022-08-19T09:38:16;19.80;;;11.30;;
65658;SDS011;60181;53.258;6.932;2022-08-19T09:42:44;19.80;;;11.30;;
65658;SDS011;60181;53.258;6.932;2022-08-19T09:47:12;20.50;;;12.10;;
65658;SDS011;60181;53.258;6.932;2022-08-19T09:51:40;20.50;;;12.10;;
65658;SDS011;60181;53.258;6.932;2022-08-19T09:56:09;20.50;;;12.10;;
65658;SDS011;60181;53.258;6.932;2022-08-19T10:00:37;18.70;;;11.40;;
65658;SDS011;60181;53.258;6.932;2022-08-19T10:05:04;18.70;;;11.40;;
65658;SDS011;60181;53.258;6.932;2022-08-19T10:09:32;15.50;;;10.80;;
65658;SDS011;60181;53.258;6.932;2022-08-19T10:14:01;15.50;;;10.80;;
65658;SDS011;60181;53.258;6.932;2022-08-19T10:18:28;18.00;;;11.20;;
65658;SDS011;60181;53.258;6.932;2022-08-19T10:22:56;18.00;;;11.20;;
65658;SDS011;60181;53.258;6.932;2022-08-19T10:27:24;18.00;;;10.20;;
65658;SDS011;60181;53.258;6.932;2022-08-19T10:31:52;18.00;;;10.20;;
65658;SDS011;60181;53.258;6.932;2022-08-19T10:36:21;18.00;;;10.20;;
65658;SDS011;60181;53.258;6.932;2022-08-19T10:40:48;16.90;;;9.70;;
65658;SDS011;60181;53.258;6.932;2022-08-19T10:45:16;16.90;;;9.70;;
65658;SDS011;60181;53.258;6.932;2022-08-19T10:49:44;17.10;;;10.40;;
65658;SDS011;60181;53.258;6.932;2022-08-19T10:54:12;17.10;;;10.40;;
65658;SDS011;60181;53.258;6.932;2022-08-19T10:58:40;18.80;;;12.10;;
65658;SDS011;60181;53.258;6.932;2022-08-19T11:03:08;18.80;;;12.10;;
65658;SDS011;60181;53.258;6.932;2022-08-19T11:07:37;20.90;;;12.60;;
65658;SDS011;60181;53.258;6.932;2022-08-19T11:12:04;20.90;;;12.60;;
65658;SDS011;60181;53.258;6.932;2022-08-19T11:16:32;20.60;;;12.20;;
65658;SDS011;60181;53.258;6.932;2022-08-19T11:21:07;20.60;;;12.20;;
65658;SDS011;60181;53.258;6.932;2022-08-19T11:25:28;20.60;;;12.20;;
65658;SDS011;60181;53.258;6.932;2022-08-19T11:29:56;15.90;;;11.00;;
65658;SDS011;60181;53.258;6.932;2022-08-19T11:34:25;15.90;;;11.00;;
65658;SDS011;60181;53.258;6.932;2022-08-19T11:38:52;18.00;;;11.00;;
65658;SDS011;60181;53.258;6.932;2022-08-19T11:43:20;18.00;;;11.00;;
65658;SDS011;60181;53.258;6.932;2022-08-19T11:47:48;15.60;;;9.60;;
65658;SDS011;60181;53.258;6.932;2022-08-19T11:52:16;15.60;;;9.60;;
65658;SDS011;60181;53.258;6.932;2022-08-19T11:56:44;15.40;;;9.70;;
65658;SDS011;60181;53.258;6.932;2022-08-19T12:01:13;15.40;;;9.70;;
65658;SDS011;60181;53.258;6.932;2022-08-19T12:05:40;15.40;;;9.70;;
65658;SDS011;60181;53.258;6.932;2022-08-19T12:10:08;14.30;;;9.00;;
65658;SDS011;60181;53.258;6.932;2022-08-19T12:14:36;14.30;;;9.00;;
65658;SDS011;60181;53.258;6.932;2022-08-19T12:19:04;12.10;;;8.50;;
65658;SDS011;60181;53.258;6.932;2022-08-19T12:23:32;12.10;;;8.50;;
65658;SDS011;60181;53.258;6.932;2022-08-19T12:28:00;11.70;;;7.90;;
65658;SDS011;60181;53.258;6.932;2022-08-19T12:32:28;11.70;;;7.90;;
65658;SDS011;60181;53.258;6.932;2022-08-19T12:36:57;11.80;;;8.30;;
65658;SDS011;60181;53.258;6.932;2022-08-19T12:41:24;11.80;;;8.30;;
65658;SDS011;60181;53.258;6.932;2022-08-19T12:45:52;11.80;;;8.30;;
65658;SDS011;60181;53.258;6.932;2022-08-19T12:50:20;13.80;;;9.00;;
65658;SDS011;60181;53.258;6.932;2022-08-19T12:54:48;13.80;;;9.00;;
65658;SDS011;60181;53.258;6.932;2022-08-19T12:59:16;13.90;;;9.20;;
65658;SDS011;60181;53.258;6.932;2022-08-19T13:03:44;13.90;;;9.20;;
65658;SDS011;60181;53.258;6.932;2022-08-19T13:08:12;11.90;;;8.60;;
65658;SDS011;60181;53.258;6.932;2022-08-19T13:12:40;11.90;;;8.60;;
65658;SDS011;60181;53.258;6.932;2022-08-19T13:17:08;18.90;;;11.10;;
65658;SDS011;60181;53.258;6.932;2022-08-19T13:21:36;18.90;;;11.10;;
65658;SDS011;60181;53.258;6.932;2022-08-19T13:26:05;18.90;;;11.10;;
65658;SDS011;60181;53.258;6.932;2022-08-19T13:30:32;15.60;;;10.80;;
65658;SDS011;60181;53.258;6.932;2022-08-19T13:35:00;15.60;;;10.80;;
65658;SDS011;60181;53.258;6.932;2022-08-19T13:39:28;13.30;;;9.80;;
65658;SDS011;60181;53.258;6.932;2022-08-19T13:43:56;13.30;;;9.80;;
65658;SDS011;60181;53.258;6.932;2022-08-19T13:48:24;17.20;;;10.90;;
65658;SDS011;60181;53.258;6.932;2022-08-19T13:52:53;17.20;;;10.90;;
65658;SDS011;60181;53.258;6.932;2022-08-19T13:57:20;14.70;;;10.70;;
65658;SDS011;60181;53.258;6.932;2022-08-19T14:01:48;14.70;;;10.70;;
65658;SDS011;60181;53.258;6.932;2022-08-19T14:06:16;14.70;;;10.70;;
65658;SDS011;60181;53.258;6.932;2022-08-19T14:10:44;16.40;;;11.60;;
65658;SDS011;60181;53.258;6.932;2022-08-19T14:15:12;16.40;;;11.60;;
65658;SDS011;60181;53.258;6.932;2022-08-19T14:19:40;25.10;;;14.90;;
65658;SDS011;60181;53.258;6.932;2022-08-19T14:24:08;25.10;;;14.90;;
65658;SDS011;60181;53.258;6.932;2022-08-19T14:28:36;22.10;;;13.90;;
65658;SDS011;60181;53.258;6.932;2022-08-19T14:33:05;22.10;;;13.90;;
65658;SDS011;60181;53.258;6.932;2022-08-19T14:37:32;32.90;;;19.00;;
65658;SDS011;60181;53.258;6.932;2022-08-19T14:42:00;32.90;;;19.00;;
65658;SDS011;60181;53.258;6.932;2022-08-19T14:46:28;30.20;;;17.20;;
65658;SDS011;60181;53.258;6.932;2022-08-19T14:50:56;30.20;;;17.20;;
65658;SDS011;60181;53.258;6.932;2022-08-19T14:55:24;30.20;;;17.20;;
65658;SDS011;60181;53.258;6.932;2022-08-19T14:59:52;29.80;;;17.00;;
65658;SDS011;60181;53.258;6.932;2022-08-19T15:04:20;29.80;;;17.00;;
65658;SDS011;60181;53.258;6.932;2022-08-19T15:08:48;28.50;;;15.90;;
65658;SDS011;60181;53.258;6.932;2022-08-19T15:13:16;28.50;;;15.90;;
65658;SDS011;60181;53.258;6.932;2022-08-19T15:17:44;26.40;;;15.20;;
65658;SDS011;60181;53.258;6.932;2022-08-19T15:22:12;26.40;;;15.20;;
65658;SDS011;60181;53.258;6.932;2022-08-19T15:26:40;43.30;;;22.20;;
65658;SDS011;60181;53.258;6.932;2022-08-19T15:31:08;43.30;;;22.20;;
65658;SDS011;60181;53.258;6.932;2022-08-19T15:35:36;43.30;;;22.20;;
65658;SDS011;60181;53.258;6.932;2022-08-19T15:40:04;34.30;;;17.40;;
65658;SDS011;60181;53.258;6.932;2022-08-19T15:44:32;34.30;;;17.40;;
65658;SDS011;60181;53.258;6.932;2022-08-19T15:49:00;30.00;;;15.80;;
65658;SDS011;60181;53.258;6.932;2022-08-19T15:53:28;30.00;;;15.80;;
65658;SDS011;60181;53.258;6.932;2022-08-19T15:57:56;28.00;;;14.90;;
65658;SDS011;60181;53.258;6.932;2022-08-19T16:02:24;28.00;;;14.90;;
65658;SDS011;60181;53.258;6.932;2022-08-19T16:06:53;28.80;;;14.90;;
65658;SDS011;60181;53.258;6.932;2022-08-19T16:11:20;28.80;;;14.90;;
65658;SDS011;60181;53.258;6.932;2022-08-19T16:15:48;28.80;;;14.90;;
65658;SDS011;60181;53.258;6.932;2022-08-19T16:20:16;28.10;;;14.70;;
65658;SDS011;60181;53.258;6.932;2022-08-19T16:24:44;28.10;;;14.70;;
65658;SDS011;60181;53.258;6.932;2022-08-19T16:29:12;28.40;;;15.50;;
65658;SDS011;60181;53.258;6.932;2022-08-19T16:33:40;28.40;;;15.50;;
65658;SDS011;60181;53.258;6.932;2022-08-19T16:38:08;30.20;;;15.30;;
65658;SDS011;60181;53.258;6.932;2022-08-19T16:42:36;30.20;;;15.30;;
65658;SDS011;60181;53.258;6.932;2022-08-19T16:47:04;38.00;;;17.60;;
65658;SDS011;60181;53.258;6.932;2022-08-19T16:51:32;38.00;;;17.60;;
65658;SDS011;60181;53.258;6.932;2022-08-19T16:56:00;38.00;;;17.60;;
65658;SDS011;60181;53.258;6.932;2022-08-19T17:00:28;31.20;;;15.40;;
65658;SDS011;60181;53.258;6.932;2022-08-19T17:04:56;31.20;;;15.40;;
65658;SDS011;60181;53.258;6.932;2022-08-19T17:09:24;31.00;;;15.90;;
65658;SDS011;60181;53.258;6.932;2022-08-19T17:13:52;31.00;;;15.90;;
65658;SDS011;60181;53.258;6.932;2022-08-19T17:18:20;25.90;;;13.30;;
65658;SDS011;60181;53.258;6.932;2022-08-19T17:22:48;25.90;;;13.30;;
65658;SDS011;60181;53.258;6.932;2022-08-19T17:27:16;28.90;;;14.60;;
65658;SDS011;60181;53.258;6.932;2022-08-19T17:31:44;28.90;;;14.60;;
65658;SDS011;60181;53.258;6.932;2022-08-19T17:36:12;28.90;;;14.60;;
65658;SDS011;60181;53.258;6.932;2022-08-19T17:40:40;24.50;;;13.30;;
65658;SDS011;60181;53.258;6.932;2022-08-19T17:45:08;24.50;;;13.30;;
65658;SDS011;60181;53.258;6.932;2022-08-19T17:49:36;23.50;;;11.50;;
65658;SDS011;60181;53.258;6.932;2022-08-19T17:54:04;23.50;;;11.50;;
65658;SDS011;60181;53.258;6.932;2022-08-19T17:58:32;21.50;;;11.00;;
65658;SDS011;60181;53.258;6.932;2022-08-19T18:03:00;21.50;;;11.00;;
65658;SDS011;60181;53.258;6.932;2022-08-19T18:07:27;19.90;;;9.90;;
65658;SDS011;60181;53.258;6.932;2022-08-19T18:11:56;19.90;;;9.90;;
65658;SDS011;60181;53.258;6.932;2022-08-19T18:16:23;19.90;;;9.90;;
65658;SDS011;60181;53.258;6.932;2022-08-19T18:20:51;19.60;;;9.60;;
65658;SDS011;60181;53.258;6.932;2022-08-19T18:25:21;19.60;;;9.60;;
65658;SDS011;60181;53.258;6.932;2022-08-19T18:29:47;20.40;;;9.60;;
65658;SDS011;60181;53.258;6.932;2022-08-19T18:34:15;20.40;;;9.60;;
65658;SDS011;60181;53.258;6.932;2022-08-19T18:38:43;17.20;;;9.20;;
65658;SDS011;60181;53.258;6.932;2022-08-19T18:43:11;17.20;;;9.20;;
65658;SDS011;60181;53.258;6.932;2022-08-19T18:47:39;13.70;;;8.40;;
65658;SDS011;60181;53.258;6.932;2022-08-19T18:52:07;13.70;;;8.40;;
65658;SDS011;60181;53.258;6.932;2022-08-19T18:56:35;14.80;;;8.10;;
65658;SDS011;60181;53.258;6.932;2022-08-19T19:01:10;14.80;;;8.10;;
65658;SDS011;60181;53.258;6.932;2022-08-19T19:05:31;14.80;;;8.10;;
65658;SDS011;60181;53.258;6.932;2022-08-19T19:09:59;15.50;;;8.00;;
65658;SDS011;60181;53.258;6.932;2022-08-19T19:14:29;15.50;;;8.00;;
65658;SDS011;60181;53.258;6.932;2022-08-19T19:18:56;16.00;;;7.70;;
65658;SDS011;60181;53.258;6.932;2022-08-19T19:23:23;16.00;;;7.70;;
65658;SDS011;60181;53.258;6.932;2022-08-19T19:27:52;13.60;;;7.20;;
65658;SDS011;60181;53.258;6.932;2022-08-19T19:32:23;13.60;;;7.20;;
65658;SDS011;60181;53.258;6.932;2022-08-19T19:36:48;15.80;;;6.70;;
65658;SDS011;60181;53.258;6.932;2022-08-19T19:41:17;15.80;;;6.70;;
65658;SDS011;60181;53.258;6.932;2022-08-19T19:45:44;15.80;;;6.70;;
65658;SDS011;60181;53.258;6.932;2022-08-19T19:50:12;22.60;;;8.40;;
65658;SDS011;60181;53.258;6.932;2022-08-19T19:54:39;22.60;;;8.40;;
65658;SDS011;60181;53.258;6.932;2022-08-19T19:59:08;16.80;;;7.60;;
65658;SDS011;60181;53.258;6.932;2022-08-19T20:03:35;16.80;;;7.60;;
65658;SDS011;60181;53.258;6.932;2022-08-19T20:08:03;19.00;;;9.40;;
65658;SDS011;60181;53.258;6.932;2022-08-19T20:12:31;19.00;;;9.40;;
65658;SDS011;60181;53.258;6.932;2022-08-19T20:17:00;15.80;;;8.70;;
65658;SDS011;60181;53.258;6.932;2022-08-19T20:21:28;15.80;;;8.70;;
65658;SDS011;60181;53.258;6.932;2022-08-19T20:25:56;15.80;;;8.70;;
65658;SDS011;60181;53.258;6.932;2022-08-19T20:30:23;20.00;;;8.80;;
65658;SDS011;60181;53.258;6.932;2022-08-19T20:34:51;20.00;;;8.80;;
65658;SDS011;60181;53.258;6.932;2022-08-19T20:39:19;20.50;;;9.50;;
65658;SDS011;60181;53.258;6.932;2022-08-19T20:43:47;20.50;;;9.50;;
65658;SDS011;60181;53.258;6.932;2022-08-19T20:48:15;16.30;;;9.10;;
65658;SDS011;60181;53.258;6.932;2022-08-19T20:52:43;16.30;;;9.10;;
65658;SDS011;60181;53.258;6.932;2022-08-19T20:57:11;17.10;;;9.70;;
65658;SDS011;60181;53.258;6.932;2022-08-19T21:01:39;17.10;;;9.70;;
65658;SDS011;60181;53.258;6.932;2022-08-19T21:06:08;17.10;;;9.70;;
65658;SDS011;60181;53.258;6.932;2022-08-19T21:10:35;17.80;;;9.70;;
65658;SDS011;60181;53.258;6.932;2022-08-19T21:15:04;17.80;;;9.70;;
65658;SDS011;60181;53.258;6.932;2022-08-19T21:19:31;18.90;;;10.10;;
65658;SDS011;60181;53.258;6.932;2022-08-19T21:23:59;18.90;;;10.10;;
65658;SDS011;60181;53.258;6.932;2022-08-19T21:28:27;17.00;;;9.40;;
65658;SDS011;60181;53.258;6.932;2022-08-19T21:32:55;17.00;;;9.40;;
65658;SDS011;60181;53.258;6.932;2022-08-19T21:37:23;14.40;;;9.40;;
65658;SDS011;60181;53.258;6.932;2022-08-19T21:41:51;14.40;;;9.40;;
65658;SDS011;60181;53.258;6.932;2022-08-19T21:46:19;14.40;;;9.40;;
65658;SDS011;60181;53.258;6.932;2022-08-19T21:50:48;29.90;;;8.60;;
65658;SDS011;60181;53.258;6.932;2022-08-19T21:55:15;29.90;;;8.60;;
65658;SDS011;60181;53.258;6.932;2022-08-19T21:59:43;23.70;;;7.50;;
65658;SDS011;60181;53.258;6.932;2022-08-19T22:04:11;23.70;;;7.50;;
65658;SDS011;60181;53.258;6.932;2022-08-19T22:08:39;23.20;;;8.60;;
65658;SDS011;60181;53.258;6.932;2022-08-19T22:13:07;23.20;;;8.60;;
65658;SDS011;60181;53.258;6.932;2022-08-19T22:17:35;20.40;;;7.20;;
65658;SDS011;60181;53.258;6.932;2022-08-19T22:22:03;20.40;;;7.20;;
65658;SDS011;60181;53.258;6.932;2022-08-19T22:26:31;14.30;;;8.30;;
65658;SDS011;60181;53.258;6.932;2022-08-19T22:30:59;14.30;;;8.30;;
65658;SDS011;60181;53.258;6.932;2022-08-19T22:35:28;14.30;;;8.30;;
65658;SDS011;60181;53.258;6.932;2022-08-19T22:39:55;14.30;;;7.40;;
65658;SDS011;60181;53.258;6.932;2022-08-19T22:44:23;14.30;;;7.40;;
65658;SDS011;60181;53.258;6.932;2022-08-19T22:48:51;14.20;;;7.30;;
65658;SDS011;60181;53.258;6.932;2022-08-19T22:53:19;14.20;;;7.30;;
65658;SDS011;60181;53.258;6.932;2022-08-19T22:57:47;19.10;;;8.00;;
65658;SDS011;60181;53.258;6.932;2022-08-19T23:02:22;19.10;;;8.00;;
65658;SDS011;60181;53.258;6.932;2022-08-19T23:06:43;17.30;;;7.00;;
65658;SDS011;60181;53.258;6.932;2022-08-19T23:11:11;17.30;;;7.00;;
65658;SDS011;60181;53.258;6.932;2022-08-19T23:15:39;17.30;;;7.00;;
65658;SDS011;60181;53.258;6.932;2022-08-19T23:20:11;13.90;;;8.00;;
65658;SDS011;60181;53.258;6.932;2022-08-19T23:24:35;13.90;;;8.00;;
65658;SDS011;60181;53.258;6.932;2022-08-19T23:29:04;16.70;;;7.80;;
65658;SDS011;60181;53.258;6.932;2022-08-19T23:33:32;16.70;;;7.80;;
65658;SDS011;60181;53.258;6.932;2022-08-19T23:37:59;17.40;;;8.10;;
65658;SDS011;60181;53.258;6.932;2022-08-19T23:42:27;17.40;;;8.10;;
65658;SDS011;60181;53.258;6.932;2022-08-19T23:46:55;15.70;;;7.10;;
65658;SDS011;60181;53.258;6.932;2022-08-19T23:51:23;15.70;;;7.10;;
65658;SDS011;60181;53.258;6.932;2022-08-19T23:55:51;15.70;;;7.10;;
